createdAt,value
2022-11-25T00:01:07.846Z,100.00
2022-11-25T00:03:35.617Z,100.00
2022-11-25T00:06:21.918Z,100.00
2022-11-25T00:08:53.517Z,100.00
2022-11-25T00:11:20.049Z,100.00
2022-11-25T00:13:48.259Z,100.00
2022-11-25T00:16:17.496Z,100.00
2022-11-25T00:18:45.873Z,100.00
2022-11-25T00:21:14.569Z,100.00
2022-11-25T00:23:41.017Z,100.00
2022-11-25T00:26:13.127Z,100.00
2022-11-25T00:28:40.594Z,100.00
2022-11-25T00:31:13.001Z,100.00
2022-11-25T00:33:40.485Z,100.00
2022-11-25T00:36:14.191Z,100.00
2022-11-25T00:38:40.573Z,100.00
2022-11-25T00:41:25.536Z,100.00
2022-11-25T00:44:10.478Z,100.00
2022-11-25T00:46:36.808Z,100.00
2022-11-25T00:49:03.161Z,100.00
2022-11-25T00:51:29.526Z,100.00
2022-11-25T00:53:58.919Z,100.00
2022-11-25T00:56:25.868Z,100.00
2022-11-25T00:58:53.447Z,100.00
2022-11-25T01:01:20.104Z,100.00
2022-11-25T01:03:49.420Z,100.00
2022-11-25T01:06:15.782Z,100.00
2022-11-25T01:08:42.108Z,100.00
2022-11-25T01:11:11.886Z,100.00
2022-11-25T01:13:38.262Z,100.00
2022-11-25T01:16:06.155Z,100.00
2022-11-25T01:18:33.323Z,100.00
2022-11-25T01:21:14.854Z,100.00
2022-11-25T01:23:42.173Z,100.00
2022-11-25T01:26:12.241Z,100.00
2022-11-25T01:28:38.882Z,100.00
2022-11-25T01:31:07.918Z,100.00
2022-11-25T01:33:34.660Z,100.00
2022-11-25T01:36:12.395Z,100.00
2022-11-25T01:38:39.824Z,100.00
2022-11-25T01:41:08.671Z,100.00
2022-11-25T01:43:35.689Z,100.00
2022-11-25T01:46:24.418Z,100.00
2022-11-25T01:48:58.528Z,100.00
2022-11-25T01:51:32.793Z,100.00
2022-11-25T01:54:03.729Z,100.00
2022-11-25T01:56:34.818Z,100.00
2022-11-25T01:59:01.815Z,100.00
2022-11-25T02:01:28.465Z,100.00
2022-11-25T02:03:56.840Z,100.00
2022-11-25T02:06:26.901Z,100.00
2022-11-25T02:09:04.461Z,100.00
2022-11-25T02:11:33.717Z,100.00
2022-11-25T02:14:01.428Z,100.00
2022-11-25T02:16:27.938Z,100.00
2022-11-25T02:18:54.804Z,100.00
2022-11-25T02:21:30.515Z,100.00
2022-11-25T02:24:08.081Z,100.00
2022-11-25T02:26:35.040Z,100.00
2022-11-25T02:29:01.636Z,100.00
2022-11-25T02:31:28.069Z,100.00
2022-11-25T02:33:54.458Z,100.00
2022-11-25T02:36:22.833Z,100.00
2022-11-25T02:38:52.073Z,100.00
2022-11-25T02:41:24.986Z,100.00
2022-11-25T02:43:51.351Z,100.00
2022-11-25T02:46:22.402Z,100.00
2022-11-25T02:49:08.291Z,100.00
2022-11-25T02:51:35.349Z,100.00
2022-11-25T02:54:01.875Z,100.00
2022-11-25T02:56:31.564Z,100.00
2022-11-25T02:58:58.594Z,100.00
2022-11-25T03:01:25.271Z,100.00
2022-11-25T03:03:51.673Z,100.00
2022-11-25T03:06:18.023Z,100.00
2022-11-25T03:08:44.411Z,100.00
2022-11-25T03:11:11.115Z,100.00
2022-11-25T03:13:37.470Z,100.00
2022-11-25T03:16:04.407Z,100.00
2022-11-25T03:18:30.848Z,100.00
2022-11-25T03:20:57.261Z,100.00
2022-11-25T03:23:24.376Z,100.00
2022-11-25T03:25:50.777Z,100.00
2022-11-25T03:28:17.158Z,100.00
2022-11-25T03:30:43.842Z,100.00
2022-11-25T03:33:10.308Z,100.00
2022-11-25T03:35:36.714Z,100.00
2022-11-25T03:38:03.070Z,100.00
2022-11-25T03:40:29.414Z,100.00
2022-11-25T03:42:55.790Z,100.00
2022-11-25T03:45:22.145Z,100.00
2022-11-25T03:47:48.611Z,100.00
2022-11-25T03:50:15.739Z,100.00
2022-11-25T03:52:42.088Z,100.00
2022-11-25T03:55:08.739Z,100.00
2022-11-25T03:57:35.349Z,100.00
2022-11-25T04:00:02.305Z,100.00
2022-11-25T04:02:28.810Z,100.00
2022-11-25T04:04:55.206Z,100.00
2022-11-25T04:07:21.593Z,100.00
2022-11-25T04:09:47.936Z,100.00
2022-11-25T04:12:32.971Z,100.00
2022-11-25T04:14:59.340Z,100.00
2022-11-25T04:17:25.686Z,100.00
2022-11-25T04:19:52.142Z,100.00
2022-11-25T04:22:18.484Z,100.00
2022-11-25T04:24:44.888Z,100.00
2022-11-25T04:27:11.382Z,100.00
2022-11-25T04:29:37.733Z,100.00
2022-11-25T04:32:05.208Z,100.00
2022-11-25T04:34:31.609Z,100.00
2022-11-25T04:36:57.959Z,100.00
2022-11-25T04:39:24.287Z,100.00
2022-11-25T04:41:50.656Z,100.00
2022-11-25T04:44:17.038Z,100.00
2022-11-25T04:46:44.008Z,100.00
2022-11-25T04:49:11.198Z,100.00
2022-11-25T04:51:37.735Z,100.00
2022-11-25T04:54:04.140Z,100.00
2022-11-25T04:56:30.680Z,100.00
2022-11-25T04:59:15.677Z,100.00
2022-11-25T05:01:42.223Z,100.00
2022-11-25T05:04:08.687Z,100.00
2022-11-25T05:06:35.190Z,100.00
2022-11-25T05:09:01.609Z,100.00
2022-11-25T05:11:27.975Z,100.00
2022-11-25T05:13:54.327Z,100.00
2022-11-25T05:16:20.829Z,100.00
2022-11-25T05:18:47.435Z,100.00
2022-11-25T05:21:13.833Z,100.00
2022-11-25T05:23:40.221Z,100.00
2022-11-25T05:26:06.649Z,100.00
2022-11-25T05:28:33.092Z,100.00
2022-11-25T05:30:59.500Z,100.00
2022-11-25T05:33:25.996Z,100.00
2022-11-25T05:35:57.959Z,100.00
2022-11-25T05:38:25.193Z,100.00
2022-11-25T05:40:52.082Z,100.00
2022-11-25T05:43:18.878Z,100.00
2022-11-25T05:45:45.660Z,100.00
2022-11-25T05:48:12.091Z,100.00
2022-11-25T05:50:38.884Z,100.00
2022-11-25T05:53:05.616Z,100.00
2022-11-25T05:55:32.096Z,100.00
2022-11-25T05:57:59.513Z,100.00
2022-11-25T06:00:27.082Z,100.00
2022-11-25T06:02:53.683Z,100.00
2022-11-25T06:05:20.846Z,100.00
2022-11-25T06:07:47.413Z,100.00
2022-11-25T06:10:14.069Z,100.00
2022-11-25T06:12:40.655Z,100.00
2022-11-25T06:15:07.818Z,100.00
2022-11-25T06:17:34.493Z,100.00
2022-11-25T06:20:01.147Z,100.00
2022-11-25T06:22:27.572Z,100.00
2022-11-25T06:25:00.412Z,100.00
2022-11-25T06:27:43.945Z,100.00
2022-11-25T06:30:16.440Z,100.00
2022-11-25T06:32:43.038Z,100.00
2022-11-25T06:35:09.841Z,100.00
2022-11-25T06:37:36.518Z,100.00
2022-11-25T06:40:03.649Z,100.00
2022-11-25T06:42:30.062Z,100.00
2022-11-25T06:44:56.414Z,100.00
2022-11-25T06:47:22.795Z,100.00
2022-11-25T06:49:49.687Z,100.00
2022-11-25T06:52:16.050Z,100.00
2022-11-25T06:54:43.112Z,100.00
2022-11-25T06:57:11.000Z,100.00
2022-11-25T06:59:37.434Z,100.00
2022-11-25T07:02:04.914Z,100.00
2022-11-25T07:04:31.472Z,100.00
2022-11-25T07:06:57.823Z,100.00
2022-11-25T07:09:24.890Z,100.00
2022-11-25T07:11:51.311Z,100.00
2022-11-25T07:14:18.882Z,100.00
2022-11-25T07:16:46.099Z,100.00
2022-11-25T07:19:14.473Z,100.00
2022-11-25T07:21:42.097Z,100.00
2022-11-25T07:24:10.602Z,100.00
2022-11-25T07:26:39.434Z,100.00
2022-11-25T07:31:58.371Z,100.00
2022-11-25T07:34:24.702Z,100.00
2022-11-25T07:36:51.075Z,100.00
2022-11-25T07:39:20.825Z,100.00
2022-11-25T07:41:51.004Z,100.00
2022-11-25T07:44:17.376Z,100.00
2022-11-25T07:46:47.527Z,100.00
2022-11-25T07:49:17.646Z,100.00
2022-11-25T07:51:53.696Z,100.00
2022-11-25T07:54:21.499Z,100.00
2022-11-25T07:56:49.689Z,100.00
2022-11-25T07:59:18.883Z,100.00
2022-11-25T08:01:45.390Z,100.00
2022-11-25T08:04:19.503Z,100.00
2022-11-25T08:06:48.261Z,100.00
2022-11-25T08:09:19.191Z,100.00
2022-11-25T08:11:47.015Z,100.00
2022-11-25T08:14:13.891Z,100.00
2022-11-25T08:16:40.335Z,100.00
2022-11-25T08:19:09.797Z,100.00
2022-11-25T08:21:36.268Z,100.00
2022-11-25T08:24:03.165Z,100.00
2022-11-25T08:26:34.887Z,100.00
2022-11-25T08:29:01.418Z,100.00
2022-11-25T08:31:31.083Z,100.00
2022-11-25T08:33:58.770Z,100.00
2022-11-25T08:36:26.817Z,100.00
2022-11-25T08:38:57.505Z,100.00
2022-11-25T08:41:28.797Z,100.00
2022-11-25T08:43:56.964Z,100.00
2022-11-25T08:46:26.114Z,100.00
2022-11-25T08:48:52.572Z,100.00
2022-11-25T08:51:22.253Z,100.00
2022-11-25T08:53:51.147Z,100.00
2022-11-25T08:56:24.333Z,100.00
2022-11-25T08:58:53.133Z,100.00
2022-11-25T09:01:20.032Z,100.00
2022-11-25T09:03:49.866Z,100.00
2022-11-25T09:06:16.633Z,100.00
2022-11-25T09:08:43.959Z,100.00
2022-11-25T09:11:11.242Z,100.00
2022-11-25T09:13:37.971Z,100.00
2022-11-25T09:16:04.816Z,100.00
2022-11-25T09:18:32.461Z,100.00
2022-11-25T09:20:59.402Z,100.00
2022-11-25T09:23:26.381Z,100.00
2022-11-25T09:25:54.549Z,100.00
2022-11-25T09:28:22.060Z,100.00
2022-11-25T09:30:48.781Z,100.00
2022-11-25T09:33:15.872Z,100.00
2022-11-25T09:35:42.334Z,100.00
2022-11-25T09:38:08.735Z,100.00
2022-11-25T09:40:49.659Z,100.00
2022-11-25T09:43:47.015Z,100.00
2022-11-25T09:46:45.854Z,100.00
2022-11-25T09:49:45.408Z,100.00
2022-11-25T09:52:30.292Z,100.00
2022-11-25T09:55:15.406Z,100.00
2022-11-25T09:58:39.153Z,100.00
2022-11-25T10:01:12.106Z,100.00
2022-11-25T10:03:47.733Z,100.00
2022-11-25T10:06:27.074Z,100.00
2022-11-25T10:08:59.378Z,100.00
2022-11-25T10:11:31.814Z,100.00
2022-11-25T10:14:10.739Z,100.00
2022-11-25T10:16:57.909Z,100.00
2022-11-25T10:19:37.158Z,100.00
2022-11-25T10:22:27.085Z,100.00
2022-11-25T10:24:58.887Z,100.00
2022-11-25T10:27:41.179Z,100.00
2022-11-25T10:30:33.981Z,100.00
2022-11-25T10:33:23.086Z,100.00
2022-11-25T10:35:57.042Z,100.00
2022-11-25T10:38:34.894Z,100.00
2022-11-25T10:41:03.532Z,100.00
2022-11-25T10:43:32.277Z,100.00
2022-11-25T10:46:04.308Z,100.00
2022-11-25T10:48:46.317Z,100.00
2022-11-25T10:51:46.995Z,100.00
2022-11-25T10:54:28.193Z,100.00
2022-11-25T10:56:57.877Z,100.00
2022-11-25T10:59:24.217Z,100.00
2022-11-25T11:02:06.341Z,100.00
2022-11-25T11:04:34.615Z,100.00
2022-11-25T11:07:08.990Z,100.00
2022-11-25T11:09:42.778Z,100.00
2022-11-25T11:12:22.841Z,100.00
2022-11-25T11:14:50.157Z,100.00
2022-11-25T11:17:37.125Z,99.75
2022-11-25T11:20:06.810Z,99.45
2022-11-25T11:22:35.337Z,98.93
2022-11-25T11:25:09.548Z,98.95
2022-11-25T11:27:38.092Z,98.58
2022-11-25T11:30:32.209Z,98.56
2022-11-25T11:33:23.589Z,98.16
2022-11-25T11:36:23.923Z,98.30
2022-11-25T11:38:57.389Z,97.78
2022-11-25T11:41:45.290Z,97.34
2022-11-25T11:44:25.418Z,97.12
2022-11-25T11:46:59.371Z,97.11
2022-11-25T11:49:45.955Z,96.90
2022-11-25T11:52:31.181Z,94.82
2022-11-25T11:55:02.636Z,95.34
2022-11-25T11:57:50.700Z,95.33
2022-11-25T12:00:19.823Z,95.08
2022-11-25T12:02:52.517Z,95.13
2022-11-25T12:05:23.102Z,95.03
2022-11-25T12:08:16.163Z,95.28
2022-11-25T12:11:01.023Z,94.94
2022-11-25T12:13:50.659Z,94.66
2022-11-25T12:16:27.532Z,94.93
2022-11-25T12:19:08.811Z,95.20
2022-11-25T12:21:43.951Z,94.05
2022-11-25T12:24:22.719Z,93.95
2022-11-25T12:26:57.737Z,93.94
2022-11-25T12:29:47.354Z,92.60
2022-11-25T12:32:35.017Z,92.63
2022-11-25T12:35:20.105Z,93.98
2022-11-25T12:37:56.396Z,93.29
2022-11-25T12:40:33.431Z,93.10
2022-11-25T12:43:27.851Z,91.99
2022-11-25T12:46:11.685Z,92.39
2022-11-25T12:48:41.329Z,91.39
2022-11-25T12:51:32.433Z,91.66
2022-11-25T12:54:22.621Z,90.70
2022-11-25T12:57:11.758Z,91.44
2022-11-25T13:00:39.885Z,91.94
2022-11-25T13:03:02.879Z,92.68
2022-11-25T13:05:41.471Z,92.78
2022-11-25T13:08:26.075Z,92.71
2022-11-25T13:10:52.357Z,92.53
2022-11-25T13:13:36.605Z,92.97
2022-11-25T13:16:06.226Z,92.79
2022-11-25T13:18:34.153Z,92.91
2022-11-25T13:21:11.939Z,92.99
2022-11-25T13:23:52.563Z,92.80
2022-11-25T13:26:36.225Z,92.14
2022-11-25T13:29:14.879Z,92.33
2022-11-25T13:32:07.779Z,92.96
2022-11-25T13:34:35.170Z,93.14
2022-11-25T13:37:22.532Z,93.07
2022-11-25T13:39:48.929Z,93.31
2022-11-25T13:42:24.306Z,93.27
2022-11-25T13:44:53.414Z,93.19
2022-11-25T13:47:38.764Z,93.24
2022-11-25T13:50:22.204Z,93.14
2022-11-25T13:53:05.329Z,93.58
2022-11-25T13:55:33.170Z,94.15
2022-11-25T13:58:20.589Z,94.60
2022-11-25T14:00:59.471Z,94.82
2022-11-25T14:03:25.852Z,95.08
2022-11-25T14:05:55.208Z,95.00
2022-11-25T14:08:34.193Z,95.01
2022-11-25T14:11:09.947Z,95.37
2022-11-25T14:14:20.587Z,95.69
2022-11-25T14:17:18.774Z,95.57
2022-11-25T14:19:52.756Z,95.53
2022-11-25T14:22:41.089Z,95.32
2022-11-25T14:25:23.802Z,95.81
2022-11-25T14:27:58.344Z,96.26
2022-11-25T14:30:28.152Z,96.90
2022-11-25T14:33:02.583Z,97.25
2022-11-25T14:35:41.676Z,97.33
2022-11-25T14:38:29.461Z,97.11
2022-11-25T14:41:03.153Z,96.91
2022-11-25T14:43:35.837Z,96.75
2022-11-25T14:46:13.559Z,96.90
2022-11-25T14:48:39.982Z,97.05
2022-11-25T14:51:08.761Z,97.69
2022-11-25T14:53:48.529Z,97.56
2022-11-25T14:56:21.098Z,98.64
2022-11-25T14:58:49.488Z,99.13
2022-11-25T15:01:26.218Z,99.68
2022-11-25T15:04:24.518Z,100.00
2022-11-25T15:06:53.875Z,100.00
2022-11-25T15:09:26.875Z,100.00
2022-11-25T15:12:04.025Z,100.00
2022-11-25T15:14:40.564Z,100.00
2022-11-25T15:17:25.233Z,100.00
2022-11-25T15:19:52.919Z,100.00
2022-11-25T15:22:23.910Z,100.00
2022-11-25T15:24:55.617Z,100.00
2022-11-25T15:27:28.854Z,100.00
2022-11-25T15:29:57.365Z,100.00
2022-11-25T15:32:29.540Z,100.00
2022-11-25T15:34:58.254Z,100.00
2022-11-25T15:37:24.959Z,100.00
2022-11-25T15:40:31.019Z,100.00
2022-11-25T15:42:59.296Z,100.00
2022-11-25T15:45:29.945Z,100.00
2022-11-25T15:47:57.098Z,100.00
2022-11-25T15:50:27.038Z,100.00
2022-11-25T15:52:56.709Z,100.00
2022-11-25T15:55:39.832Z,100.00
2022-11-25T15:58:17.429Z,100.00
2022-11-25T16:01:19.312Z,100.00
2022-11-25T16:03:46.976Z,100.00
2022-11-25T16:06:21.601Z,100.00
2022-11-25T16:09:01.760Z,100.00
2022-11-25T16:11:33.432Z,100.00
2022-11-25T16:14:19.588Z,100.00
2022-11-25T16:16:47.396Z,100.00
2022-11-25T16:19:17.849Z,100.00
2022-11-25T16:21:51.262Z,100.00
2022-11-25T16:24:32.944Z,100.00
2022-11-25T16:27:21.268Z,100.00
2022-11-25T16:29:56.788Z,100.00
2022-11-25T16:32:29.125Z,100.00
2022-11-25T16:34:59.796Z,100.00
2022-11-25T16:37:26.243Z,100.00
2022-11-25T16:39:52.623Z,100.00
2022-11-25T16:42:21.400Z,100.00
2022-11-25T16:44:51.058Z,100.00
2022-11-25T16:47:22.608Z,100.00
2022-11-25T16:49:49.358Z,100.00
2022-11-25T16:52:16.007Z,100.00
2022-11-25T16:54:43.941Z,100.00
2022-11-25T16:57:17.772Z,100.00
2022-11-25T16:59:45.569Z,100.00
2022-11-25T17:02:19.596Z,100.00
2022-11-25T17:04:46.839Z,100.00
2022-11-25T17:10:01.946Z,100.00
2022-11-25T17:12:32.397Z,100.00
2022-11-25T17:15:00.485Z,100.00
2022-11-25T17:17:28.353Z,100.00
2022-11-25T17:19:55.427Z,100.00
2022-11-25T17:22:24.470Z,100.00
2022-11-25T17:24:52.419Z,100.00
2022-11-25T17:27:23.793Z,100.00
2022-11-25T17:29:51.418Z,100.00
2022-11-25T17:32:17.951Z,100.00
2022-11-25T17:34:44.641Z,100.00
2022-11-25T17:37:20.379Z,100.00
2022-11-25T17:39:46.786Z,100.00
2022-11-25T17:42:15.754Z,100.00
2022-11-25T17:44:43.379Z,100.00
2022-11-25T17:47:13.382Z,100.00
2022-11-25T17:49:39.990Z,100.00
2022-11-25T17:52:06.473Z,100.00
2022-11-25T17:54:32.847Z,100.00
2022-11-25T17:56:59.534Z,100.00
2022-11-25T17:59:30.226Z,100.00
2022-11-25T18:01:59.495Z,100.00
2022-11-25T18:04:32.423Z,100.00
2022-11-25T18:06:59.331Z,100.00
2022-11-25T18:09:25.748Z,100.00
2022-11-25T18:11:54.777Z,100.00
2022-11-25T18:14:31.916Z,100.00
2022-11-25T18:17:02.381Z,100.00
2022-11-25T18:19:29.026Z,100.00
2022-11-25T18:22:00.425Z,100.00
2022-11-25T18:24:27.018Z,100.00
2022-11-25T18:26:53.637Z,100.00
2022-11-25T18:29:26.087Z,100.00
2022-11-25T18:31:58.371Z,100.00
2022-11-25T18:34:26.023Z,100.00
2022-11-25T18:36:53.434Z,100.00
2022-11-25T18:39:20.525Z,100.00
2022-11-25T18:41:48.138Z,100.00
2022-11-25T18:44:26.079Z,100.00
2022-11-25T18:46:54.046Z,100.00
2022-11-25T18:49:20.841Z,100.00
2022-11-25T18:51:47.523Z,100.00
2022-11-25T18:54:14.026Z,100.00
2022-11-25T18:56:41.311Z,100.00
2022-11-25T18:59:14.639Z,100.00
2022-11-25T19:01:44.172Z,100.00
2022-11-25T19:04:16.123Z,100.00
2022-11-25T19:06:43.639Z,100.00
2022-11-25T19:09:10.673Z,100.00
2022-11-25T19:11:41.760Z,100.00
2022-11-25T19:14:15.413Z,100.00
2022-11-25T19:16:43.377Z,100.00
2022-11-25T19:19:15.428Z,100.00
2022-11-25T19:21:41.826Z,100.00
2022-11-25T19:24:16.349Z,100.00
2022-11-25T19:26:51.881Z,100.00
2022-11-25T19:29:21.908Z,100.00
2022-11-25T19:31:54.148Z,100.00
2022-11-25T19:34:32.327Z,100.00
2022-11-25T19:36:59.006Z,100.00
2022-11-25T19:39:27.303Z,100.00
2022-11-25T19:41:55.124Z,100.00
2022-11-25T19:44:21.507Z,100.00
2022-11-25T19:47:14.221Z,100.00
2022-11-25T19:49:36.659Z,100.00
2022-11-25T19:52:03.020Z,100.00
2022-11-25T19:54:30.270Z,100.00
2022-11-25T19:56:58.180Z,100.00
2022-11-25T19:59:24.733Z,100.00
2022-11-25T20:01:51.366Z,100.00
2022-11-25T20:04:22.053Z,100.00
2022-11-25T20:06:49.300Z,100.00
2022-11-25T20:09:15.919Z,100.00
2022-11-25T20:11:43.057Z,100.00
2022-11-25T20:14:09.474Z,100.00
2022-11-25T20:16:39.693Z,100.00
2022-11-25T20:19:14.076Z,100.00
2022-11-25T20:21:40.935Z,100.00
2022-11-25T20:24:14.369Z,100.00
2022-11-25T20:26:45.810Z,100.00
2022-11-25T20:29:18.629Z,100.00
2022-11-25T20:31:45.117Z,100.00
2022-11-25T20:34:11.589Z,100.00
2022-11-25T20:36:41.062Z,100.00
2022-11-25T20:39:07.780Z,100.00
2022-11-25T20:41:34.448Z,100.00
2022-11-25T20:44:00.953Z,100.00
2022-11-25T20:46:29.898Z,100.00
2022-11-25T20:49:03.254Z,100.00
2022-11-25T20:51:29.676Z,100.00
2022-11-25T20:53:58.140Z,100.00
2022-11-25T20:56:26.439Z,100.00
2022-11-25T20:58:52.780Z,100.00
2022-11-25T21:01:19.458Z,100.00
2022-11-25T21:03:47.094Z,100.00
2022-11-25T21:06:28.641Z,100.00
2022-11-25T21:08:58.139Z,100.00
2022-11-25T21:11:26.475Z,100.00
2022-11-25T21:13:52.910Z,100.00
2022-11-25T21:16:19.564Z,100.00
2022-11-25T21:18:46.025Z,100.00
2022-11-25T21:21:19.710Z,100.00
2022-11-25T21:23:47.722Z,100.00
2022-11-25T21:26:21.906Z,100.00
2022-11-25T21:28:50.977Z,100.00
2022-11-25T21:31:21.186Z,100.00
2022-11-25T21:33:48.992Z,100.00
2022-11-25T21:36:21.984Z,100.00
2022-11-25T21:38:51.621Z,100.00
2022-11-25T21:41:18.295Z,100.00
2022-11-25T21:43:47.021Z,100.00
2022-11-25T21:46:26.400Z,100.00
2022-11-25T21:48:52.919Z,100.00
2022-11-25T21:51:23.944Z,100.00
2022-11-25T21:53:51.321Z,100.00
2022-11-25T21:56:30.642Z,100.00
2022-11-25T21:58:59.910Z,100.00
2022-11-25T22:01:26.425Z,100.00
2022-11-25T22:03:53.227Z,100.00
2022-11-25T22:06:29.489Z,100.00
2022-11-25T22:08:56.669Z,100.00
2022-11-25T22:11:35.753Z,100.00
2022-11-25T22:14:12.778Z,100.00
2022-11-25T22:16:39.530Z,100.00
2022-11-25T22:19:06.241Z,100.00
2022-11-25T22:21:32.587Z,100.00
2022-11-25T22:23:58.986Z,100.00
2022-11-25T22:26:32.043Z,100.00
2022-11-25T22:29:00.062Z,100.00
2022-11-25T22:31:27.497Z,100.00
2022-11-25T22:33:54.869Z,100.00
2022-11-25T22:36:28.562Z,100.00
2022-11-25T22:38:55.075Z,100.00
2022-11-25T22:41:21.755Z,100.00
2022-11-25T22:43:51.903Z,100.00
2022-11-25T22:46:18.602Z,100.00
2022-11-25T22:48:45.219Z,100.00
2022-11-25T22:51:18.367Z,100.00
2022-11-25T22:53:44.738Z,100.00
2022-11-25T22:56:19.344Z,100.00
2022-11-25T22:58:46.416Z,100.00
2022-11-25T23:01:15.304Z,100.00
2022-11-25T23:03:42.830Z,100.00
2022-11-25T23:06:13.256Z,100.00
2022-11-25T23:08:40.358Z,100.00
2022-11-25T23:11:14.113Z,100.00
2022-11-25T23:13:40.522Z,100.00
2022-11-25T23:16:07.151Z,100.00
2022-11-25T23:18:46.795Z,100.00
2022-11-25T23:21:21.949Z,100.00
2022-11-25T23:23:48.782Z,100.00
2022-11-25T23:26:16.059Z,100.00
2022-11-25T23:28:42.508Z,100.00
2022-11-25T23:31:13.577Z,100.00
2022-11-25T23:33:44.001Z,100.00
2022-11-25T23:36:29.134Z,100.00
2022-11-25T23:38:58.052Z,100.00
2022-11-25T23:41:34.768Z,100.00
2022-11-25T23:44:26.489Z,100.00
2022-11-25T23:46:57.856Z,100.00
2022-11-25T23:49:28.713Z,100.00
2022-11-25T23:51:57.084Z,100.00
2022-11-25T23:54:40.406Z,100.00
2022-11-25T23:57:14.506Z,100.00
2022-11-25T23:59:41.387Z,100.00
